Time;durP1;ratioP1;P1;durP2;ratioP2;P2;SDS_P1;SDS_P2;PMS_P1;PMS_P2;Temp;Humidity;BMP_temperature;BMP_pressure;BME280_temperature;BME280_humidity;BME280_pressure;Samples;Min_cycle;Max_cycle;Signal;HPM_P1;HPM_P2
2023/04/08 00:02:06;;;;;;;19.02;11.65;;;;;;;;;;5030420;28;20119;-76
2023/04/08 00:04:32;;;;;;;19.67;11.85;;;;;;;;;;5031802;28;20026;-77
2023/04/08 00:06:58;;;;;;;18.02;12.18;;;;;;;;;;5030430;28;20076;-77
2023/04/08 00:09:24;;;;;;;19.55;12.50;;;;;;;;;;5031783;28;20037;-75
2023/04/08 00:11:51;;;;;;;21.13;13.70;;;;;;;;;;5031055;28;20033;-76
2023/04/08 00:14:17;;;;;;;17.15;13.23;;;;;;;;;;5031803;28;20025;-76
2023/04/08 00:16:43;;;;;;;21.27;14.52;;;;;;;;;;5031639;28;20017;-77
2023/04/08 00:19:09;;;;;;;22.55;14.95;;;;;;;;;;5031565;28;20025;-77
2023/04/08 00:21:35;;;;;;;34.03;15.25;;;;;;;;;;5030185;28;20025;-76
2023/04/08 00:24:01;;;;;;;21.08;14.48;;;;;;;;;;5030339;28;20124;-76
2023/04/08 00:26:27;;;;;;;21.33;14.57;;;;;;;;;;5031327;28;20025;-76
2023/04/08 00:28:53;;;;;;;24.08;15.82;;;;;;;;;;5031631;28;20026;-76
2023/04/08 00:31:20;;;;;;;27.50;15.30;;;;;;;;;;5031522;28;20034;-76
2023/04/08 00:33:46;;;;;;;21.23;14.48;;;;;;;;;;5031851;28;20021;-75
2023/04/08 00:36:12;;;;;;;28.58;15.35;;;;;;;;;;5031149;28;20040;-76
2023/04/08 00:38:38;;;;;;;24.67;15.10;;;;;;;;;;5031721;28;20109;-77
2023/04/08 00:41:04;;;;;;;25.48;15.23;;;;;;;;;;5031401;28;20477;-76
2023/04/08 00:43:30;;;;;;;31.45;15.35;;;;;;;;;;5031078;28;20038;-79
2023/04/08 00:45:56;;;;;;;25.35;15.48;;;;;;;;;;5031307;28;20105;-78
2023/04/08 00:48:23;;;;;;;21.90;14.18;;;;;;;;;;5031149;28;20036;-76
2023/04/08 00:50:49;;;;;;;26.75;14.35;;;;;;;;;;5031868;28;20033;-84
2023/04/08 00:53:16;;;;;;;26.52;14.48;;;;;;;;;;5032403;28;20052;-84
2023/04/08 00:55:43;;;;;;;26.15;14.05;;;;;;;;;;5032817;28;20022;-80
2023/04/08 00:58:09;;;;;;;26.45;12.90;;;;;;;;;;5032343;28;20064;-84
2023/04/08 01:00:36;;;;;;;31.63;14.45;;;;;;;;;;5032074;28;20022;-85
2023/04/08 01:03:02;;;;;;;27.95;13.15;;;;;;;;;;5031834;28;20481;-85
2023/04/08 01:05:30;;;;;;;31.25;13.57;;;;;;;;;;5032044;28;20067;-84
2023/04/08 01:07:59;;;;;;;26.13;12.43;;;;;;;;;;5031833;28;20017;-83
2023/04/08 01:10:33;;;;;;;26.55;12.88;;;;;;;;;;5031443;28;20478;-84
2023/04/08 01:13:03;;;;;;;27.75;13.38;;;;;;;;;;5031911;28;20032;-85
2023/04/08 01:15:30;;;;;;;27.02;12.77;;;;;;;;;;5032057;28;20026;-85
2023/04/08 01:17:57;;;;;;;23.42;12.05;;;;;;;;;;5032430;28;20026;-84
2023/04/08 01:20:26;;;;;;;27.48;12.15;;;;;;;;;;5033403;28;20044;-85
2023/04/08 01:23:11;;;;;;;25.85;12.13;;;;;;;;;;5034770;28;20133;-86
2023/04/08 01:25:38;;;;;;;28.30;12.50;;;;;;;;;;5035571;28;20113;-84
2023/04/08 01:28:09;;;;;;;24.50;12.68;;;;;;;;;;5035614;28;20028;-84
2023/04/08 01:30:37;;;;;;;25.98;11.85;;;;;;;;;;5035602;28;20037;-85
2023/04/08 01:33:05;;;;;;;23.60;11.45;;;;;;;;;;5035527;28;20053;-85
2023/04/08 01:35:31;;;;;;;28.58;10.30;;;;;;;;;;5035377;28;20385;-85
2023/04/08 01:37:57;;;;;;;23.13;10.40;;;;;;;;;;5035367;28;20022;-85
2023/04/08 01:40:24;;;;;;;24.23;10.50;;;;;;;;;;5035831;28;20056;-85
2023/04/08 01:42:51;;;;;;;19.02;9.02;;;;;;;;;;5033719;28;20398;-86
2023/04/08 01:45:18;;;;;;;22.67;9.10;;;;;;;;;;5034244;28;20053;-85
2023/04/08 01:47:48;;;;;;;19.58;9.32;;;;;;;;;;5035657;28;20056;-85
2023/04/08 01:50:15;;;;;;;30.33;9.50;;;;;;;;;;5035296;28;20021;-85
2023/04/08 01:52:43;;;;;;;15.48;8.05;;;;;;;;;;5035633;28;20065;-83
2023/04/08 01:55:09;;;;;;;26.30;8.48;;;;;;;;;;5035210;28;20033;-86
2023/04/08 01:57:37;;;;;;;20.17;8.80;;;;;;;;;;5035310;28;20018;-87
2023/04/08 02:00:05;;;;;;;22.23;8.48;;;;;;;;;;5033874;28;20056;-85
2023/04/08 02:02:32;;;;;;;17.42;7.60;;;;;;;;;;5035100;28;20039;-84
2023/04/08 02:04:59;;;;;;;14.32;7.38;;;;;;;;;;5035110;28;20029;-85
2023/04/08 02:07:25;;;;;;;19.60;7.57;;;;;;;;;;5035305;28;20352;-85
2023/04/08 02:09:51;;;;;;;25.38;9.02;;;;;;;;;;5035771;28;20056;-84
2023/04/08 02:12:17;;;;;;;17.98;7.63;;;;;;;;;;5038635;28;20022;-85
2023/04/08 02:14:43;;;;;;;20.48;7.65;;;;;;;;;;5043115;28;20038;-84
2023/04/08 02:17:14;;;;;;;16.95;7.28;;;;;;;;;;5047061;28;20053;-83
2023/04/08 02:19:48;;;;;;;20.05;7.30;;;;;;;;;;5046334;28;20029;-83
2023/04/08 02:22:19;;;;;;;16.70;6.32;;;;;;;;;;5047423;28;20116;-83
2023/04/08 02:24:46;;;;;;;22.08;6.97;;;;;;;;;;5049639;28;20033;-84
2023/04/08 02:27:12;;;;;;;17.65;6.78;;;;;;;;;;5048795;28;20025;-84
2023/04/08 02:29:40;;;;;;;18.20;6.63;;;;;;;;;;5052494;28;20029;-84
2023/04/08 02:32:06;;;;;;;19.42;6.20;;;;;;;;;;5047765;28;20022;-84
2023/04/08 02:34:35;;;;;;;16.85;7.07;;;;;;;;;;5042027;28;20120;-86
2023/04/08 02:37:02;;;;;;;13.55;6.75;;;;;;;;;;5039802;28;20036;-85
2023/04/08 02:39:31;;;;;;;18.40;6.65;;;;;;;;;;5041257;28;20018;-84
2023/04/08 02:41:58;;;;;;;19.98;6.55;;;;;;;;;;5041369;28;20049;-86
2023/04/08 02:44:24;;;;;;;14.73;6.57;;;;;;;;;;5039168;28;20056;-84
2023/04/08 02:46:50;;;;;;;22.20;7.30;;;;;;;;;;5041333;28;20026;-85
2023/04/08 02:49:16;;;;;;;22.20;7.07;;;;;;;;;;5039492;28;20363;-85
2023/04/08 02:51:42;;;;;;;19.33;7.43;;;;;;;;;;5039148;28;20493;-84
2023/04/08 02:54:08;;;;;;;20.95;7.18;;;;;;;;;;5034732;28;20026;-84
2023/04/08 02:56:34;;;;;;;15.88;6.80;;;;;;;;;;5035531;28;20037;-85
2023/04/08 02:59:00;;;;;;;15.75;7.07;;;;;;;;;;5034448;28;20022;-85
2023/04/08 03:01:26;;;;;;;20.13;7.78;;;;;;;;;;5034566;28;20033;-86
2023/04/08 03:03:52;;;;;;;19.15;7.25;;;;;;;;;;5034390;28;20040;-84
2023/04/08 03:06:18;;;;;;;19.98;6.70;;;;;;;;;;5034473;28;20014;-84
2023/04/08 03:08:44;;;;;;;18.50;7.53;;;;;;;;;;5033354;28;20031;-84
2023/04/08 03:11:10;;;;;;;17.20;8.00;;;;;;;;;;5034428;28;20457;-84
2023/04/08 03:13:36;;;;;;;19.23;7.28;;;;;;;;;;5034103;28;20509;-84
2023/04/08 03:16:02;;;;;;;16.60;7.80;;;;;;;;;;5033753;28;20033;-86
2023/04/08 03:18:29;;;;;;;20.05;7.47;;;;;;;;;;5033817;28;20432;-85
2023/04/08 03:20:55;;;;;;;22.17;8.02;;;;;;;;;;5033562;28;20028;-85
2023/04/08 03:23:21;;;;;;;19.15;8.00;;;;;;;;;;5033656;28;20497;-84
2023/04/08 03:25:47;;;;;;;17.38;7.97;;;;;;;;;;5033527;28;20021;-85
2023/04/08 03:28:13;;;;;;;22.13;7.90;;;;;;;;;;5033689;28;20040;-86
2023/04/08 03:30:39;;;;;;;20.20;8.00;;;;;;;;;;5034375;28;20029;-84
2023/04/08 03:33:06;;;;;;;20.35;8.45;;;;;;;;;;5036428;28;20089;-85
2023/04/08 03:35:33;;;;;;;18.50;7.95;;;;;;;;;;5034208;28;20554;-85
2023/04/08 03:37:59;;;;;;;27.13;8.75;;;;;;;;;;5033712;28;20035;-84
2023/04/08 03:40:25;;;;;;;21.48;9.35;;;;;;;;;;5032109;28;20021;-85
2023/04/08 03:42:51;;;;;;;20.52;8.45;;;;;;;;;;5033968;28;20109;-86
2023/04/08 03:45:17;;;;;;;17.85;8.25;;;;;;;;;;5032641;28;20052;-85
2023/04/08 03:47:43;;;;;;;23.90;9.38;;;;;;;;;;5033481;28;20056;-83
2023/04/08 03:50:09;;;;;;;19.83;8.65;;;;;;;;;;5031908;28;20470;-85
2023/04/08 03:52:35;;;;;;;21.13;9.23;;;;;;;;;;5032837;28;20040;-84
2023/04/08 03:55:01;;;;;;;20.63;7.88;;;;;;;;;;5033697;28;20497;-85
2023/04/08 03:57:27;;;;;;;16.80;9.25;;;;;;;;;;5032773;28;20422;-84
2023/04/08 03:59:53;;;;;;;17.52;8.38;;;;;;;;;;5032855;28;20376;-86
2023/04/08 04:02:19;;;;;;;23.55;9.35;;;;;;;;;;5032785;28;20049;-81
2023/04/08 04:04:46;;;;;;;19.42;10.02;;;;;;;;;;5033258;28;20045;-85
2023/04/08 04:07:12;;;;;;;22.20;9.95;;;;;;;;;;5032688;28;20021;-84
2023/04/08 04:09:38;;;;;;;21.15;9.82;;;;;;;;;;5032619;28;20032;-84
2023/04/08 04:12:04;;;;;;;20.50;9.25;;;;;;;;;;5032402;28;20096;-84
2023/04/08 04:14:30;;;;;;;22.38;8.38;;;;;;;;;;5034932;28;20488;-83
2023/04/08 04:16:56;;;;;;;19.33;8.60;;;;;;;;;;5032667;28;20033;-84
2023/04/08 04:19:22;;;;;;;20.35;8.98;;;;;;;;;;5032286;28;20035;-85
2023/04/08 04:21:48;;;;;;;25.60;9.40;;;;;;;;;;5032402;28;20092;-84
2023/04/08 04:24:14;;;;;;;21.33;8.55;;;;;;;;;;5032168;28;20065;-85
2023/04/08 04:26:41;;;;;;;22.13;9.05;;;;;;;;;;5032371;28;20029;-84
2023/04/08 04:29:07;;;;;;;20.50;9.52;;;;;;;;;;5032356;28;20032;-85
2023/04/08 04:31:33;;;;;;;20.42;9.20;;;;;;;;;;5032259;28;20116;-86
2023/04/08 04:33:59;;;;;;;26.70;9.68;;;;;;;;;;5032676;28;20017;-85
2023/04/08 04:36:26;;;;;;;23.70;10.52;;;;;;;;;;5031574;28;20053;-82
2023/04/08 04:38:52;;;;;;;22.30;9.00;;;;;;;;;;5042673;28;20025;-86
2023/04/08 04:41:18;;;;;;;19.80;9.32;;;;;;;;;;5047682;28;20047;-84
2023/04/08 04:43:44;;;;;;;22.27;9.05;;;;;;;;;;5034273;28;20120;-85
2023/04/08 04:46:10;;;;;;;24.27;9.48;;;;;;;;;;5032358;28;20029;-84
2023/04/08 04:48:36;;;;;;;26.67;9.68;;;;;;;;;;5032524;28;20032;-83
2023/04/08 04:51:03;;;;;;;21.77;9.80;;;;;;;;;;5032714;28;20026;-85
2023/04/08 04:53:30;;;;;;;27.90;10.02;;;;;;;;;;5032148;28;20035;-83
2023/04/08 04:55:56;;;;;;;20.90;9.82;;;;;;;;;;5032694;28;20026;-84
2023/04/08 04:58:22;;;;;;;21.45;9.75;;;;;;;;;;5040717;28;20097;-83
2023/04/08 05:00:48;;;;;;;25.52;10.73;;;;;;;;;;5047346;28;20041;-85
2023/04/08 05:03:14;;;;;;;21.70;9.02;;;;;;;;;;5049146;28;20030;-84
2023/04/08 05:05:40;;;;;;;19.52;8.85;;;;;;;;;;5047527;28;20021;-83
2023/04/08 05:08:06;;;;;;;33.03;9.88;;;;;;;;;;5044396;28;20021;-86
2023/04/08 05:10:32;;;;;;;25.42;9.88;;;;;;;;;;5038925;28;20030;-84
2023/04/08 05:12:58;;;;;;;21.48;9.43;;;;;;;;;;5038872;28;20532;-83
2023/04/08 05:15:25;;;;;;;25.38;9.48;;;;;;;;;;5038516;28;20113;-84
2023/04/08 05:17:51;;;;;;;24.38;8.98;;;;;;;;;;5038716;28;20056;-85
2023/04/08 05:20:17;;;;;;;22.42;9.40;;;;;;;;;;5038725;28;20382;-84
2023/04/08 05:22:44;;;;;;;19.35;8.90;;;;;;;;;;5038256;28;20033;-84
2023/04/08 05:25:10;;;;;;;27.98;9.27;;;;;;;;;;5038206;28;20359;-85
2023/04/08 05:27:37;;;;;;;21.63;9.85;;;;;;;;;;5038432;28;20021;-83
2023/04/08 05:30:03;;;;;;;20.00;9.60;;;;;;;;;;5038662;28;20066;-84
2023/04/08 05:32:29;;;;;;;23.88;9.27;;;;;;;;;;5038324;28;20030;-84
2023/04/08 05:34:55;;;;;;;22.58;9.13;;;;;;;;;;5039494;28;20061;-84
2023/04/08 05:37:21;;;;;;;19.10;8.45;;;;;;;;;;5039142;28;20026;-84
2023/04/08 05:39:47;;;;;;;22.38;8.63;;;;;;;;;;5040593;28;20083;-84
2023/04/08 05:42:13;;;;;;;17.65;8.95;;;;;;;;;;5043826;28;20120;-84
2023/04/08 05:44:42;;;;;;;17.27;8.40;;;;;;;;;;5040778;28;20432;-84
2023/04/08 05:47:08;;;;;;;18.17;8.88;;;;;;;;;;5042975;28;20025;-84
2023/04/08 05:49:34;;;;;;;21.83;8.70;;;;;;;;;;5049485;28;20025;-83
2023/04/08 05:52:01;;;;;;;21.15;9.35;;;;;;;;;;5049305;28;20025;-84
2023/04/08 05:54:27;;;;;;;23.90;9.63;;;;;;;;;;5049108;28;20048;-86
2023/04/08 05:56:53;;;;;;;20.42;10.48;;;;;;;;;;5049121;28;20041;-85
2023/04/08 05:59:19;;;;;;;21.33;9.88;;;;;;;;;;5046514;28;20038;-85
2023/04/08 06:01:45;;;;;;;25.20;10.93;;;;;;;;;;5050638;28;20036;-84
2023/04/08 06:04:11;;;;;;;20.05;9.90;;;;;;;;;;5044853;28;20045;-85
2023/04/08 06:06:38;;;;;;;21.90;10.63;;;;;;;;;;5045891;28;20052;-84
2023/04/08 06:09:05;;;;;;;24.55;11.50;;;;;;;;;;5039018;28;20029;-86
2023/04/08 06:11:31;;;;;;;20.77;10.57;;;;;;;;;;5039471;28;20052;-84
2023/04/08 06:13:57;;;;;;;20.50;10.30;;;;;;;;;;5038831;28;20458;-85
2023/04/08 06:16:23;;;;;;;27.13;11.35;;;;;;;;;;5037518;28;20040;-85
2023/04/08 06:18:49;;;;;;;17.58;9.48;;;;;;;;;;5037187;28;20032;-86
2023/04/08 06:21:15;;;;;;;23.45;8.52;;;;;;;;;;5036689;28;20053;-85
2023/04/08 06:23:41;;;;;;;21.75;10.98;;;;;;;;;;5035827;28;20041;-86
2023/04/08 06:26:07;;;;;;;21.00;10.90;;;;;;;;;;5037049;28;20020;-85
2023/04/08 06:28:33;;;;;;;19.83;11.82;;;;;;;;;;5035934;28;20035;-85
2023/04/08 06:30:59;;;;;;;19.30;11.38;;;;;;;;;;5043526;28;20109;-85
2023/04/08 06:33:25;;;;;;;22.20;11.88;;;;;;;;;;5038927;28;20417;-84
2023/04/08 06:35:52;;;;;;;21.20;12.38;;;;;;;;;;5037208;28;20420;-85
2023/04/08 06:38:18;;;;;;;23.67;12.40;;;;;;;;;;5036517;28;20040;-84
2023/04/08 06:40:44;;;;;;;19.65;11.35;;;;;;;;;;5036705;28;20104;-87
2023/04/08 06:43:10;;;;;;;20.45;10.70;;;;;;;;;;5036839;28;20060;-85
2023/04/08 06:45:36;;;;;;;24.33;10.93;;;;;;;;;;5052119;28;20041;-83
2023/04/08 06:48:02;;;;;;;19.42;10.95;;;;;;;;;;5039040;28;20079;-85
2023/04/08 06:50:28;;;;;;;25.50;10.93;;;;;;;;;;5036492;28;20033;-84
2023/04/08 06:52:54;;;;;;;27.33;13.70;;;;;;;;;;5034562;28;20056;-85
2023/04/08 06:55:20;;;;;;;25.75;12.80;;;;;;;;;;5035434;28;20029;-84
2023/04/08 06:57:46;;;;;;;26.48;13.18;;;;;;;;;;5035564;28;20079;-85
2023/04/08 07:00:13;;;;;;;23.40;11.13;;;;;;;;;;5034969;28;20075;-85
2023/04/08 07:02:39;;;;;;;27.88;12.73;;;;;;;;;;5034935;28;20065;-85
2023/04/08 07:05:05;;;;;;;25.73;11.85;;;;;;;;;;5035177;28;20048;-86
2023/04/08 07:07:32;;;;;;;25.08;14.20;;;;;;;;;;5034966;28;20104;-86
2023/04/08 07:09:58;;;;;;;23.63;13.13;;;;;;;;;;5035498;28;20057;-85
2023/04/08 07:12:24;;;;;;;23.48;11.57;;;;;;;;;;5034721;28;20032;-84
2023/04/08 07:14:51;;;;;;;31.33;12.60;;;;;;;;;;5034664;28;20032;-85
2023/04/08 07:17:18;;;;;;;33.83;12.50;;;;;;;;;;5038224;28;20029;-85
2023/04/08 07:19:44;;;;;;;24.20;12.98;;;;;;;;;;5044165;28;20025;-85
2023/04/08 07:22:10;;;;;;;25.30;12.30;;;;;;;;;;5042036;28;20025;-83
2023/04/08 07:24:36;;;;;;;22.92;11.60;;;;;;;;;;5042590;28;20649;-84
2023/04/08 07:27:02;;;;;;;25.70;12.30;;;;;;;;;;5040052;28;20021;-84
2023/04/08 07:29:28;;;;;;;26.63;13.27;;;;;;;;;;5035638;28;20072;-86
2023/04/08 07:31:54;;;;;;;29.42;13.65;;;;;;;;;;5034241;28;20021;-84
2023/04/08 07:34:20;;;;;;;34.22;13.98;;;;;;;;;;5033825;28;20466;-85
2023/04/08 07:36:46;;;;;;;24.65;12.68;;;;;;;;;;5033376;28;20029;-85
2023/04/08 07:39:12;;;;;;;28.98;13.48;;;;;;;;;;5033435;28;20026;-85
2023/04/08 07:41:38;;;;;;;27.33;11.93;;;;;;;;;;5034073;28;20056;-86
2023/04/08 07:44:05;;;;;;;31.67;14.57;;;;;;;;;;5034043;28;20037;-86
2023/04/08 07:46:32;;;;;;;27.10;13.90;;;;;;;;;;5033269;28;20530;-85
2023/04/08 07:48:58;;;;;;;24.80;12.93;;;;;;;;;;5033178;28;20501;-85
2023/04/08 07:51:26;;;;;;;34.42;14.43;;;;;;;;;;5032047;28;20029;-85
2023/04/08 07:53:52;;;;;;;27.40;13.77;;;;;;;;;;5036037;28;20032;-85
2023/04/08 07:56:18;;;;;;;26.02;13.60;;;;;;;;;;5036543;28;20026;-85
2023/04/08 07:58:46;;;;;;;32.85;14.30;;;;;;;;;;5035249;28;20033;-85
2023/04/08 08:01:20;;;;;;;26.42;13.50;;;;;;;;;;5033366;28;20022;-85
2023/04/08 08:03:46;;;;;;;22.27;12.27;;;;;;;;;;5033121;28;20033;-83
2023/04/08 08:06:12;;;;;;;24.38;13.35;;;;;;;;;;5033454;28;20026;-85
2023/04/08 08:08:38;;;;;;;19.45;12.10;;;;;;;;;;5033417;28;20045;-85
2023/04/08 08:11:05;;;;;;;25.50;12.98;;;;;;;;;;5032504;28;20026;-85
2023/04/08 08:13:31;;;;;;;25.42;13.75;;;;;;;;;;5032448;28;20040;-84
2023/04/08 08:15:57;;;;;;;27.30;13.50;;;;;;;;;;5032227;28;20257;-84
2023/04/08 08:18:23;;;;;;;29.20;13.85;;;;;;;;;;5032286;28;20470;-85
2023/04/08 08:20:49;;;;;;;23.92;12.77;;;;;;;;;;5032585;28;20029;-84
2023/04/08 08:23:15;;;;;;;20.50;11.98;;;;;;;;;;5032693;28;20083;-85
2023/04/08 08:25:41;;;;;;;27.27;13.32;;;;;;;;;;5036933;28;20045;-85
2023/04/08 08:28:07;;;;;;;21.45;13.18;;;;;;;;;;5047526;28;20045;-84
2023/04/08 08:30:33;;;;;;;20.70;12.07;;;;;;;;;;5034661;28;20087;-85
2023/04/08 08:33:00;;;;;;;21.65;11.80;;;;;;;;;;5031547;28;20029;-86
2023/04/08 08:35:26;;;;;;;23.65;11.63;;;;;;;;;;5032557;28;20473;-87
2023/04/08 08:37:52;;;;;;;19.55;11.48;;;;;;;;;;5032151;28;20025;-86
2023/04/08 08:40:18;;;;;;;22.85;12.30;;;;;;;;;;5032932;28;20025;-86
2023/04/08 08:42:54;;;;;;;25.23;11.77;;;;;;;;;;5032405;28;20484;-85
2023/04/08 08:45:20;;;;;;;22.20;11.65;;;;;;;;;;5033149;28;20034;-86
2023/04/08 08:47:46;;;;;;;22.30;11.00;;;;;;;;;;5037173;28;20024;-86
2023/04/08 08:50:12;;;;;;;19.38;10.00;;;;;;;;;;5050068;28;20040;-86
2023/04/08 08:52:38;;;;;;;17.33;9.32;;;;;;;;;;5040969;28;20029;-85
2023/04/08 08:55:04;;;;;;;28.13;10.95;;;;;;;;;;5033396;28;20022;-85
2023/04/08 08:57:30;;;;;;;12.07;7.75;;;;;;;;;;5033496;28;20045;-85
2023/04/08 08:59:57;;;;;;;13.55;8.27;;;;;;;;;;5032306;28;20119;-84
2023/04/08 09:02:31;;;;;;;14.35;6.68;;;;;;;;;;5032182;28;20027;-84
2023/04/08 09:04:59;;;;;;;9.40;4.45;;;;;;;;;;5032815;28;20048;-85
2023/04/08 09:07:26;;;;;;;7.70;3.13;;;;;;;;;;5032254;28;20381;-85
2023/04/08 09:09:53;;;;;;;8.27;3.35;;;;;;;;;;5032118;28;20061;-85
2023/04/08 09:12:19;;;;;;;6.47;3.58;;;;;;;;;;5032204;28;20490;-85
2023/04/08 09:14:45;;;;;;;6.05;2.40;;;;;;;;;;5032798;28;20025;-86
2023/04/08 09:17:11;;;;;;;5.28;2.67;;;;;;;;;;5032857;28;20022;-88
2023/04/08 09:19:37;;;;;;;3.90;2.60;;;;;;;;;;5034624;28;20041;-87
2023/04/08 09:22:05;;;;;;;4.90;2.97;;;;;;;;;;5035018;28;20026;-87
2023/04/08 09:24:31;;;;;;;7.15;2.75;;;;;;;;;;5033566;28;20069;-88
2023/04/08 09:26:57;;;;;;;6.47;2.60;;;;;;;;;;5032956;28;20026;-87
2023/04/08 09:29:25;;;;;;;6.85;2.80;;;;;;;;;;5033272;28;20589;-88
2023/04/08 09:31:55;;;;;;;6.90;3.10;;;;;;;;;;5033040;28;20018;-87
2023/04/08 09:34:22;;;;;;;5.07;2.60;;;;;;;;;;5033290;28;20482;-88
2023/04/08 09:36:51;;;;;;;9.07;3.30;;;;;;;;;;5033236;28;20041;-89
2023/04/08 09:39:17;;;;;;;4.80;2.95;;;;;;;;;;5033541;28;20049;-87
2023/04/08 09:41:43;;;;;;;3.88;2.35;;;;;;;;;;5044528;28;20084;-87
2023/04/08 09:44:11;;;;;;;4.40;2.33;;;;;;;;;;5041150;28;20494;-83
2023/04/08 09:46:45;;;;;;;5.60;2.92;;;;;;;;;;5043301;28;20097;-84
2023/04/08 09:49:22;;;;;;;7.72;2.35;;;;;;;;;;5043343;28;20018;-86
2023/04/08 09:52:08;;;;;;;5.03;2.28;;;;;;;;;;5037910;28;20025;-86
2023/04/08 09:54:53;;;;;;;6.68;2.80;;;;;;;;;;5036867;28;20098;-88
2023/04/08 09:57:28;;;;;;;4.40;2.67;;;;;;;;;;5035949;28;20422;-86
2023/04/08 10:00:21;;;;;;;8.38;2.67;;;;;;;;;;5035690;28;20029;-86
2023/04/08 10:02:56;;;;;;;7.50;2.42;;;;;;;;;;5035047;28;20076;-85
2023/04/08 10:05:23;;;;;;;5.00;1.90;;;;;;;;;;5038825;28;20029;-85
2023/04/08 10:07:50;;;;;;;3.42;1.95;;;;;;;;;;5037534;28;20033;-85
2023/04/08 10:10:16;;;;;;;3.28;2.00;;;;;;;;;;5035574;28;20418;-86
2023/04/08 10:12:42;;;;;;;4.20;2.13;;;;;;;;;;5035234;28;20437;-87
2023/04/08 10:15:24;;;;;;;5.25;2.03;;;;;;;;;;5035121;28;20025;-86
2023/04/08 10:17:51;;;;;;;5.20;2.30;;;;;;;;;;5035351;28;20037;-87
2023/04/08 10:20:35;;;;;;;4.13;2.30;;;;;;;;;;5035406;28;20048;-85
2023/04/08 10:23:01;;;;;;;5.03;2.33;;;;;;;;;;5035722;28;20037;-87
2023/04/08 10:25:29;;;;;;;2.97;2.08;;;;;;;;;;5033316;28;20025;-87
2023/04/08 10:27:55;;;;;;;4.38;2.15;;;;;;;;;;5034545;28;20067;-86
2023/04/08 10:30:27;;;;;;;6.07;2.00;;;;;;;;;;5034208;28;20096;-86
2023/04/08 10:32:56;;;;;;;4.70;2.20;;;;;;;;;;5034775;28;20021;-87
2023/04/08 10:35:32;;;;;;;5.53;2.00;;;;;;;;;;5034962;28;20108;-88
2023/04/08 10:37:58;;;;;;;5.40;2.75;;;;;;;;;;5034673;28;20024;-86
2023/04/08 10:40:25;;;;;;;5.40;2.15;;;;;;;;;;5034879;28;20032;-86
2023/04/08 10:42:55;;;;;;;3.20;2.50;;;;;;;;;;5034546;28;20522;-85
2023/04/08 10:45:22;;;;;;;3.23;2.20;;;;;;;;;;5035054;28;20058;-85
2023/04/08 10:47:48;;;;;;;6.85;2.40;;;;;;;;;;5034797;28;20025;-86
2023/04/08 10:50:15;;;;;;;5.03;2.05;;;;;;;;;;5034618;28;20053;-86
2023/04/08 10:52:47;;;;;;;4.53;2.40;;;;;;;;;;5037129;28;20026;-86
2023/04/08 10:55:13;;;;;;;4.65;2.15;;;;;;;;;;5051002;28;20033;-87
2023/04/08 10:57:42;;;;;;;4.00;2.25;;;;;;;;;;5035295;28;20021;-85
2023/04/08 11:00:11;;;;;;;8.75;2.20;;;;;;;;;;5033890;28;20026;-84
2023/04/08 11:02:37;;;;;;;3.00;1.70;;;;;;;;;;5033061;28;20036;-77
2023/04/08 11:05:04;;;;;;;4.30;1.70;;;;;;;;;;5032914;28;20029;-77
2023/04/08 11:07:30;;;;;;;3.33;1.80;;;;;;;;;;5032828;28;20067;-75
2023/04/08 11:09:56;;;;;;;2.33;1.70;;;;;;;;;;5032864;28;20059;-74
2023/04/08 11:12:22;;;;;;;3.90;1.58;;;;;;;;;;5032647;28;20030;-76
2023/04/08 11:14:50;;;;;;;2.70;1.40;;;;;;;;;;5032740;28;20032;-76
2023/04/08 11:17:16;;;;;;;4.60;2.42;;;;;;;;;;5032721;28;20516;-76
2023/04/08 11:19:42;;;;;;;2.88;1.80;;;;;;;;;;5031250;28;20481;-74
2023/04/08 11:22:09;;;;;;;3.20;1.67;;;;;;;;;;5032497;28;20147;-75
2023/04/08 11:24:38;;;;;;;7.55;1.73;;;;;;;;;;5032394;28;20111;-74
2023/04/08 11:27:07;;;;;;;4.82;1.80;;;;;;;;;;5031204;28;20025;-75
2023/04/08 11:29:33;;;;;;;4.80;1.70;;;;;;;;;;5032412;28;20033;-75
2023/04/08 11:32:00;;;;;;;4.78;2.13;;;;;;;;;;5032201;28;20421;-77
2023/04/08 11:34:27;;;;;;;2.72;1.45;;;;;;;;;;5032306;28;20028;-74
2023/04/08 11:36:53;;;;;;;6.68;2.00;;;;;;;;;;5031947;28;20037;-76
2023/04/08 11:39:22;;;;;;;4.90;1.85;;;;;;;;;;5030969;28;20025;-76
2023/04/08 11:41:48;;;;;;;4.97;1.85;;;;;;;;;;5032032;28;20037;-75
2023/04/08 11:44:15;;;;;;;3.60;1.95;;;;;;;;;;5031970;28;20041;-75
2023/04/08 11:46:41;;;;;;;2.65;1.73;;;;;;;;;;5032039;28;20433;-74
2023/04/08 11:49:09;;;;;;;3.25;1.98;;;;;;;;;;5032083;28;20087;-75
2023/04/08 11:51:36;;;;;;;4.50;1.70;;;;;;;;;;5032224;28;20101;-75
2023/04/08 11:54:06;;;;;;;3.92;1.98;;;;;;;;;;5032008;28;20494;-75
2023/04/08 11:56:44;;;;;;;3.05;1.60;;;;;;;;;;5032250;28;20042;-75
2023/04/08 11:59:10;;;;;;;4.63;2.00;;;;;;;;;;5031861;28;20017;-75
2023/04/08 12:01:36;;;;;;;2.58;1.40;;;;;;;;;;5031919;28;20063;-76
2023/04/08 12:04:02;;;;;;;2.10;1.48;;;;;;;;;;5032090;28;20041;-73
2023/04/08 12:06:30;;;;;;;3.42;1.58;;;;;;;;;;5031261;28;20033;-73
2023/04/08 12:08:56;;;;;;;2.47;1.50;;;;;;;;;;5030301;28;20029;-76
2023/04/08 12:11:23;;;;;;;3.30;1.88;;;;;;;;;;5031543;28;20022;-75
2023/04/08 12:13:49;;;;;;;3.50;2.00;;;;;;;;;;5031686;28;20049;-73
2023/04/08 12:16:16;;;;;;;3.63;1.70;;;;;;;;;;5031652;28;20049;-74
2023/04/08 12:18:42;;;;;;;1.95;1.40;;;;;;;;;;5031647;28;20545;-75
2023/04/08 12:21:08;;;;;;;2.38;1.10;;;;;;;;;;5031482;28;20435;-75
2023/04/08 12:23:34;;;;;;;3.22;1.30;;;;;;;;;;5031430;28;20117;-75
2023/04/08 12:26:00;;;;;;;2.85;1.50;;;;;;;;;;5031478;28;20026;-74
2023/04/08 12:28:26;;;;;;;3.50;1.67;;;;;;;;;;5031358;28;20029;-75
2023/04/08 12:30:52;;;;;;;2.13;1.50;;;;;;;;;;5031602;28;20170;-77
2023/04/08 12:33:18;;;;;;;3.25;1.30;;;;;;;;;;5031395;28;20033;-75
2023/04/08 12:35:44;;;;;;;1.88;1.27;;;;;;;;;;5031310;28;20029;-75
2023/04/08 12:38:10;;;;;;;2.13;1.33;;;;;;;;;;5031191;28;20072;-75
2023/04/08 12:40:36;;;;;;;2.78;1.50;;;;;;;;;;5031210;28;20406;-75
2023/04/08 12:43:02;;;;;;;5.75;1.63;;;;;;;;;;5030731;28;20049;-75
2023/04/08 12:45:28;;;;;;;4.60;1.40;;;;;;;;;;5031145;28;20123;-74
2023/04/08 12:47:54;;;;;;;6.22;1.33;;;;;;;;;;5031288;28;20025;-74
2023/04/08 12:50:20;;;;;;;2.28;1.33;;;;;;;;;;5031348;28;20029;-75
2023/04/08 12:52:46;;;;;;;3.20;1.42;;;;;;;;;;5031331;28;20191;-76
2023/04/08 12:55:12;;;;;;;2.45;1.20;;;;;;;;;;5031233;28;20192;-77
2023/04/08 12:57:39;;;;;;;3.35;1.50;;;;;;;;;;5030813;28;20025;-76
2023/04/08 13:00:05;;;;;;;2.28;1.30;;;;;;;;;;5031185;28;20025;-75
2023/04/08 13:02:31;;;;;;;1.23;1.10;;;;;;;;;;5031090;28;20021;-75
2023/04/08 13:04:57;;;;;;;3.42;1.30;;;;;;;;;;5031145;28;20175;-74
2023/04/08 13:07:24;;;;;;;1.80;1.00;;;;;;;;;;5031282;28;20053;-75
2023/04/08 13:09:50;;;;;;;2.92;1.15;;;;;;;;;;5031036;28;20115;-75
2023/04/08 13:12:16;;;;;;;5.50;1.48;;;;;;;;;;5030676;28;20061;-75
2023/04/08 13:14:42;;;;;;;4.90;1.30;;;;;;;;;;5030820;28;20108;-75
2023/04/08 13:17:08;;;;;;;2.63;1.40;;;;;;;;;;5030969;28;20022;-75
2023/04/08 13:19:34;;;;;;;3.88;1.30;;;;;;;;;;5034656;28;20444;-75
2023/04/08 13:22:00;;;;;;;1.38;1.20;;;;;;;;;;5034733;28;20029;-75
2023/04/08 13:24:26;;;;;;;3.22;1.20;;;;;;;;;;5034954;28;20033;-80
2023/04/08 13:26:52;;;;;;;4.63;1.23;;;;;;;;;;5034728;28;20430;-75
2023/04/08 13:29:18;;;;;;;3.83;1.27;;;;;;;;;;5034905;28;20034;-75
2023/04/08 13:31:44;;;;;;;2.88;1.58;;;;;;;;;;5034944;28;20025;-75
2023/04/08 13:34:10;;;;;;;5.30;1.90;;;;;;;;;;5034929;28;20025;-74
2023/04/08 13:36:36;;;;;;;2.90;1.20;;;;;;;;;;5034756;28;20037;-75
2023/04/08 13:39:02;;;;;;;1.42;1.00;;;;;;;;;;5034465;28;20029;-74
2023/04/08 13:41:28;;;;;;;2.53;1.10;;;;;;;;;;5034479;28;20050;-74
2023/04/08 13:43:55;;;;;;;1.55;1.10;;;;;;;;;;5033154;28;20116;-74
2023/04/08 13:46:21;;;;;;;4.57;1.50;;;;;;;;;;5034556;28;20398;-74
2023/04/08 13:48:47;;;;;;;2.45;1.02;;;;;;;;;;5034542;28;20489;-74
2023/04/08 13:51:13;;;;;;;2.00;1.17;;;;;;;;;;5034406;28;20037;-74
2023/04/08 13:53:39;;;;;;;1.70;1.00;;;;;;;;;;5034192;28;20029;-75
2023/04/08 13:56:05;;;;;;;3.63;1.20;;;;;;;;;;5034191;28;20494;-75
2023/04/08 13:58:31;;;;;;;2.97;1.20;;;;;;;;;;5034310;28;20052;-78
2023/04/08 14:00:57;;;;;;;3.00;1.10;;;;;;;;;;5034360;28;20024;-74
2023/04/08 14:03:23;;;;;;;3.55;1.50;;;;;;;;;;5034161;28;20033;-75
2023/04/08 14:05:50;;;;;;;3.85;1.40;;;;;;;;;;5034364;28;20036;-74
2023/04/08 14:08:23;;;;;;;1.50;1.33;;;;;;;;;;5034140;28;20018;-75
2023/04/08 14:10:49;;;;;;;1.60;1.50;;;;;;;;;;5033984;28;20037;-75
2023/04/08 14:13:15;;;;;;;3.03;1.42;;;;;;;;;;5033958;28;20021;-74
2023/04/08 14:15:41;;;;;;;2.13;1.10;;;;;;;;;;5034293;28;20476;-75
2023/04/08 14:18:08;;;;;;;3.80;1.27;;;;;;;;;;5034046;28;20029;-75
2023/04/08 14:20:34;;;;;;;3.38;1.10;;;;;;;;;;5033940;28;20036;-75
2023/04/08 14:23:01;;;;;;;4.70;1.10;;;;;;;;;;5033820;28;20559;-75
2023/04/08 14:25:27;;;;;;;2.92;0.85;;;;;;;;;;5034150;28;20029;-75
2023/04/08 14:27:53;;;;;;;2.33;1.25;;;;;;;;;;5033740;28;20063;-73
2023/04/08 14:30:19;;;;;;;3.85;1.35;;;;;;;;;;5032859;28;20045;-75